sensor_id;sensor_type;location;lat;lon;timestamp;P1;durP1;ratioP1;P2;durP2;ratioP2
58496;SDS011;44284;51.310;16.904;2022-12-18T00:00:05;36.92;;;14.98;;
58496;SDS011;44284;51.310;16.904;2022-12-18T00:02:31;38.78;;;12.73;;
58496;SDS011;44284;51.310;16.904;2022-12-18T00:04:57;42.85;;;15.93;;
58496;SDS011;44284;51.310;16.904;2022-12-18T00:07:23;106.13;;;45.15;;
58496;SDS011;44284;51.310;16.904;2022-12-18T00:09:49;247.50;;;121.72;;
58496;SDS011;44284;51.310;16.904;2022-12-18T00:12:16;137.10;;;67.22;;
58496;SDS011;44284;51.310;16.904;2022-12-18T00:14:42;67.75;;;30.73;;
58496;SDS011;44284;51.310;16.904;2022-12-18T00:17:10;44.55;;;18.10;;
58496;SDS011;44284;51.310;16.904;2022-12-18T00:19:36;37.20;;;16.25;;
58496;SDS011;44284;51.310;16.904;2022-12-18T00:22:02;36.60;;;13.95;;
58496;SDS011;44284;51.310;16.904;2022-12-18T00:24:29;36.85;;;14.63;;
58496;SDS011;44284;51.310;16.904;2022-12-18T00:26:55;34.53;;;12.77;;
58496;SDS011;44284;51.310;16.904;2022-12-18T00:29:21;29.48;;;12.77;;
58496;SDS011;44284;51.310;16.904;2022-12-18T00:31:47;38.17;;;14.25;;
58496;SDS011;44284;51.310;16.904;2022-12-18T00:34:13;30.10;;;12.75;;
58496;SDS011;44284;51.310;16.904;2022-12-18T00:36:39;29.13;;;11.27;;
58496;SDS011;44284;51.310;16.904;2022-12-18T00:39:06;29.70;;;11.82;;
58496;SDS011;44284;51.310;16.904;2022-12-18T00:41:32;29.88;;;12.07;;
58496;SDS011;44284;51.310;16.904;2022-12-18T00:46:43;26.13;;;9.63;;
58496;SDS011;44284;51.310;16.904;2022-12-18T00:49:09;35.97;;;13.55;;
58496;SDS011;44284;51.310;16.904;2022-12-18T00:51:38;31.70;;;11.27;;
58496;SDS011;44284;51.310;16.904;2022-12-18T00:54:04;41.25;;;12.52;;
58496;SDS011;44284;51.310;16.904;2022-12-18T00:56:30;30.15;;;12.10;;
58496;SDS011;44284;51.310;16.904;2022-12-18T00:58:56;34.72;;;12.20;;
58496;SDS011;44284;51.310;16.904;2022-12-18T01:01:23;29.48;;;10.80;;
58496;SDS011;44284;51.310;16.904;2022-12-18T01:03:49;28.20;;;11.77;;
58496;SDS011;44284;51.310;16.904;2022-12-18T01:06:15;27.40;;;10.68;;
58496;SDS011;44284;51.310;16.904;2022-12-18T01:08:42;32.55;;;11.40;;
58496;SDS011;44284;51.310;16.904;2022-12-18T01:11:09;26.60;;;10.48;;
58496;SDS011;44284;51.310;16.904;2022-12-18T01:13:35;29.10;;;10.52;;
58496;SDS011;44284;51.310;16.904;2022-12-18T01:16:01;29.42;;;10.85;;
58496;SDS011;44284;51.310;16.904;2022-12-18T01:18:27;28.75;;;11.07;;
58496;SDS011;44284;51.310;16.904;2022-12-18T01:20:53;32.10;;;10.65;;
58496;SDS011;44284;51.310;16.904;2022-12-18T01:23:19;41.58;;;12.35;;
58496;SDS011;44284;51.310;16.904;2022-12-18T01:25:45;28.65;;;11.23;;
58496;SDS011;44284;51.310;16.904;2022-12-18T01:28:11;31.77;;;12.55;;
58496;SDS011;44284;51.310;16.904;2022-12-18T01:30:37;31.25;;;12.63;;
58496;SDS011;44284;51.310;16.904;2022-12-18T01:33:04;39.17;;;12.73;;
58496;SDS011;44284;51.310;16.904;2022-12-18T01:35:30;34.00;;;13.05;;
58496;SDS011;44284;51.310;16.904;2022-12-18T01:37:56;33.97;;;13.48;;
58496;SDS011;44284;51.310;16.904;2022-12-18T01:40:22;36.60;;;12.68;;
58496;SDS011;44284;51.310;16.904;2022-12-18T01:42:50;36.92;;;15.05;;
58496;SDS011;44284;51.310;16.904;2022-12-18T01:47:43;37.45;;;13.43;;
58496;SDS011;44284;51.310;16.904;2022-12-18T01:52:40;31.80;;;12.23;;
58496;SDS011;44284;51.310;16.904;2022-12-18T01:55:07;35.17;;;13.00;;
58496;SDS011;44284;51.310;16.904;2022-12-18T01:57:33;37.90;;;12.52;;
58496;SDS011;44284;51.310;16.904;2022-12-18T02:00:01;34.72;;;13.82;;
58496;SDS011;44284;51.310;16.904;2022-12-18T02:02:28;28.90;;;12.45;;
58496;SDS011;44284;51.310;16.904;2022-12-18T02:04:54;33.42;;;12.73;;
58496;SDS011;44284;51.310;16.904;2022-12-18T02:08:22;29.02;;;12.80;;
58496;SDS011;44284;51.310;16.904;2022-12-18T02:10:31;29.08;;;12.88;;
58496;SDS011;44284;51.310;16.904;2022-12-18T02:13:20;32.53;;;12.73;;
58496;SDS011;44284;51.310;16.904;2022-12-18T02:15:51;29.42;;;11.23;;
58496;SDS011;44284;51.310;16.904;2022-12-18T02:18:24;25.52;;;12.32;;
58496;SDS011;44284;51.310;16.904;2022-12-18T02:21:04;34.92;;;13.98;;
58496;SDS011;44284;51.310;16.904;2022-12-18T02:28:45;38.63;;;14.00;;
58496;SDS011;44284;51.310;16.904;2022-12-18T02:31:14;34.03;;;13.68;;
58496;SDS011;44284;51.310;16.904;2022-12-18T02:33:40;34.10;;;12.88;;
58496;SDS011;44284;51.310;16.904;2022-12-18T02:36:07;31.10;;;12.50;;
58496;SDS011;44284;51.310;16.904;2022-12-18T02:38:34;33.67;;;12.27;;
58496;SDS011;44284;51.310;16.904;2022-12-18T02:41:00;29.85;;;12.23;;
58496;SDS011;44284;51.310;16.904;2022-12-18T02:43:26;30.25;;;11.52;;
58496;SDS011;44284;51.310;16.904;2022-12-18T02:46:01;37.38;;;14.13;;
58496;SDS011;44284;51.310;16.904;2022-12-18T02:48:38;31.70;;;11.43;;
58496;SDS011;44284;51.310;16.904;2022-12-18T02:51:29;28.38;;;12.93;;
58496;SDS011;44284;51.310;16.904;2022-12-18T02:53:58;35.03;;;11.38;;
58496;SDS011;44284;51.310;16.904;2022-12-18T02:56:28;32.20;;;11.13;;
58496;SDS011;44284;51.310;16.904;2022-12-18T02:59:00;31.45;;;12.85;;
58496;SDS011;44284;51.310;16.904;2022-12-18T03:01:31;35.88;;;13.45;;
58496;SDS011;44284;51.310;16.904;2022-12-18T03:04:20;39.03;;;14.00;;
58496;SDS011;44284;51.310;16.904;2022-12-18T03:06:49;31.65;;;11.82;;
58496;SDS011;44284;51.310;16.904;2022-12-18T03:09:18;33.20;;;11.88;;
58496;SDS011;44284;51.310;16.904;2022-12-18T03:11:46;27.42;;;11.70;;
58496;SDS011;44284;51.310;16.904;2022-12-18T03:14:33;26.55;;;10.85;;
58496;SDS011;44284;51.310;16.904;2022-12-18T03:17:02;31.88;;;10.23;;
58496;SDS011;44284;51.310;16.904;2022-12-18T03:19:29;26.08;;;11.80;;
58496;SDS011;44284;51.310;16.904;2022-12-18T03:21:57;29.08;;;12.32;;
58496;SDS011;44284;51.310;16.904;2022-12-18T03:24:24;28.85;;;11.43;;
58496;SDS011;44284;51.310;16.904;2022-12-18T03:26:52;24.02;;;10.75;;
58496;SDS011;44284;51.310;16.904;2022-12-18T03:29:27;29.65;;;11.90;;
58496;SDS011;44284;51.310;16.904;2022-12-18T03:31:55;31.67;;;12.82;;
58496;SDS011;44284;51.310;16.904;2022-12-18T03:34:25;33.28;;;12.65;;
58496;SDS011;44284;51.310;16.904;2022-12-18T03:36:52;37.17;;;13.50;;
58496;SDS011;44284;51.310;16.904;2022-12-18T03:39:18;29.08;;;12.93;;
58496;SDS011;44284;51.310;16.904;2022-12-18T03:41:52;24.80;;;11.68;;
58496;SDS011;44284;51.310;16.904;2022-12-18T03:44:29;22.52;;;10.50;;
58496;SDS011;44284;51.310;16.904;2022-12-18T03:46:58;20.20;;;10.40;;
58496;SDS011;44284;51.310;16.904;2022-12-18T03:49:51;27.73;;;11.13;;
58496;SDS011;44284;51.310;16.904;2022-12-18T03:52:17;24.65;;;10.00;;
58496;SDS011;44284;51.310;16.904;2022-12-18T03:54:46;31.20;;;12.35;;
58496;SDS011;44284;51.310;16.904;2022-12-18T03:57:14;35.15;;;11.00;;
58496;SDS011;44284;51.310;16.904;2022-12-18T03:59:40;27.85;;;11.00;;
58496;SDS011;44284;51.310;16.904;2022-12-18T04:02:07;27.75;;;10.70;;
58496;SDS011;44284;51.310;16.904;2022-12-18T04:04:34;27.92;;;10.10;;
58496;SDS011;44284;51.310;16.904;2022-12-18T04:07:01;28.40;;;11.98;;
58496;SDS011;44284;51.310;16.904;2022-12-18T04:09:28;35.67;;;12.43;;
58496;SDS011;44284;51.310;16.904;2022-12-18T04:11:55;34.08;;;12.82;;
58496;SDS011;44284;51.310;16.904;2022-12-18T04:14:21;34.90;;;13.50;;
58496;SDS011;44284;51.310;16.904;2022-12-18T04:16:47;30.58;;;12.45;;
58496;SDS011;44284;51.310;16.904;2022-12-18T04:19:13;31.52;;;11.40;;
58496;SDS011;44284;51.310;16.904;2022-12-18T04:21:39;30.60;;;10.45;;
58496;SDS011;44284;51.310;16.904;2022-12-18T04:24:05;28.23;;;10.90;;
58496;SDS011;44284;51.310;16.904;2022-12-18T04:26:32;25.67;;;12.07;;
58496;SDS011;44284;51.310;16.904;2022-12-18T04:28:58;29.42;;;10.50;;
58496;SDS011;44284;51.310;16.904;2022-12-18T04:31:24;25.95;;;12.25;;
58496;SDS011;44284;51.310;16.904;2022-12-18T04:33:50;38.53;;;11.45;;
58496;SDS011;44284;51.310;16.904;2022-12-18T04:36:16;30.88;;;11.93;;
58496;SDS011;44284;51.310;16.904;2022-12-18T04:38:42;34.30;;;12.80;;
58496;SDS011;44284;51.310;16.904;2022-12-18T04:41:08;29.45;;;12.20;;
58496;SDS011;44284;51.310;16.904;2022-12-18T04:43:34;32.08;;;12.35;;
58496;SDS011;44284;51.310;16.904;2022-12-18T04:46:04;33.55;;;13.95;;
58496;SDS011;44284;51.310;16.904;2022-12-18T04:48:30;27.40;;;11.38;;
58496;SDS011;44284;51.310;16.904;2022-12-18T04:50:56;24.70;;;10.60;;
58496;SDS011;44284;51.310;16.904;2022-12-18T04:53:22;29.90;;;13.07;;
58496;SDS011;44284;51.310;16.904;2022-12-18T04:55:48;30.77;;;12.13;;
58496;SDS011;44284;51.310;16.904;2022-12-18T04:58:14;30.63;;;10.73;;
58496;SDS011;44284;51.310;16.904;2022-12-18T05:00:40;33.10;;;12.45;;
58496;SDS011;44284;51.310;16.904;2022-12-18T05:03:06;31.35;;;12.98;;
58496;SDS011;44284;51.310;16.904;2022-12-18T05:05:34;30.60;;;13.98;;
58496;SDS011;44284;51.310;16.904;2022-12-18T05:08:00;31.98;;;12.88;;
58496;SDS011;44284;51.310;16.904;2022-12-18T05:10:26;29.10;;;12.43;;
58496;SDS011;44284;51.310;16.904;2022-12-18T05:12:52;27.73;;;12.80;;
58496;SDS011;44284;51.310;16.904;2022-12-18T05:15:28;31.67;;;12.35;;
58496;SDS011;44284;51.310;16.904;2022-12-18T05:17:54;107.35;;;36.90;;
58496;SDS011;44284;51.310;16.904;2022-12-18T05:20:20;52.90;;;15.98;;
58496;SDS011;44284;51.310;16.904;2022-12-18T05:22:46;36.53;;;13.80;;
58496;SDS011;44284;51.310;16.904;2022-12-18T05:25:12;42.03;;;13.75;;
58496;SDS011;44284;51.310;16.904;2022-12-18T05:27:38;40.33;;;14.40;;
58496;SDS011;44284;51.310;16.904;2022-12-18T05:30:04;99.95;;;30.60;;
58496;SDS011;44284;51.310;16.904;2022-12-18T05:32:31;42.80;;;19.42;;
58496;SDS011;44284;51.310;16.904;2022-12-18T05:34:57;38.15;;;15.15;;
58496;SDS011;44284;51.310;16.904;2022-12-18T05:37:23;40.33;;;16.10;;
58496;SDS011;44284;51.310;16.904;2022-12-18T05:39:49;38.00;;;15.57;;
58496;SDS011;44284;51.310;16.904;2022-12-18T05:42:15;44.38;;;19.42;;
58496;SDS011;44284;51.310;16.904;2022-12-18T05:44:41;44.22;;;16.95;;
58496;SDS011;44284;51.310;16.904;2022-12-18T05:47:07;38.85;;;15.52;;
58496;SDS011;44284;51.310;16.904;2022-12-18T05:49:33;26.13;;;13.63;;
58496;SDS011;44284;51.310;16.904;2022-12-18T05:51:59;34.50;;;13.80;;
58496;SDS011;44284;51.310;16.904;2022-12-18T05:54:26;27.88;;;14.07;;
58496;SDS011;44284;51.310;16.904;2022-12-18T05:56:53;36.15;;;13.00;;
58496;SDS011;44284;51.310;16.904;2022-12-18T05:59:19;32.42;;;13.50;;
58496;SDS011;44284;51.310;16.904;2022-12-18T06:01:45;28.55;;;13.27;;
58496;SDS011;44284;51.310;16.904;2022-12-18T06:04:11;30.38;;;12.55;;
58496;SDS011;44284;51.310;16.904;2022-12-18T06:06:38;46.33;;;19.50;;
58496;SDS011;44284;51.310;16.904;2022-12-18T06:09:04;32.53;;;14.00;;
58496;SDS011;44284;51.310;16.904;2022-12-18T06:11:33;38.17;;;14.98;;
58496;SDS011;44284;51.310;16.904;2022-12-18T06:14:00;40.85;;;14.48;;
58496;SDS011;44284;51.310;16.904;2022-12-18T06:16:29;27.17;;;9.95;;
58496;SDS011;44284;51.310;16.904;2022-12-18T06:18:56;28.55;;;13.57;;
58496;SDS011;44284;51.310;16.904;2022-12-18T06:21:22;30.27;;;12.68;;
58496;SDS011;44284;51.310;16.904;2022-12-18T06:23:48;25.58;;;11.23;;
58496;SDS011;44284;51.310;16.904;2022-12-18T06:26:14;39.15;;;11.98;;
58496;SDS011;44284;51.310;16.904;2022-12-18T06:28:40;30.65;;;12.40;;
58496;SDS011;44284;51.310;16.904;2022-12-18T06:31:06;34.85;;;12.45;;
58496;SDS011;44284;51.310;16.904;2022-12-18T06:33:33;38.17;;;17.05;;
58496;SDS011;44284;51.310;16.904;2022-12-18T06:36:06;35.25;;;13.25;;
58496;SDS011;44284;51.310;16.904;2022-12-18T06:38:33;39.95;;;16.77;;
58496;SDS011;44284;51.310;16.904;2022-12-18T06:40:59;29.02;;;12.93;;
58496;SDS011;44284;51.310;16.904;2022-12-18T06:43:25;32.20;;;12.85;;
58496;SDS011;44284;51.310;16.904;2022-12-18T06:45:57;31.77;;;13.80;;
58496;SDS011;44284;51.310;16.904;2022-12-18T06:50:52;26.77;;;11.82;;
58496;SDS011;44284;51.310;16.904;2022-12-18T06:53:18;31.67;;;12.35;;
58496;SDS011;44284;51.310;16.904;2022-12-18T06:55:44;34.17;;;14.15;;
58496;SDS011;44284;51.310;16.904;2022-12-18T06:58:10;51.03;;;20.20;;
58496;SDS011;44284;51.310;16.904;2022-12-18T07:00:36;39.45;;;14.70;;
58496;SDS011;44284;51.310;16.904;2022-12-18T07:03:02;32.58;;;13.45;;
58496;SDS011;44284;51.310;16.904;2022-12-18T07:05:28;36.35;;;15.48;;
58496;SDS011;44284;51.310;16.904;2022-12-18T07:07:54;40.55;;;14.75;;
58496;SDS011;44284;51.310;16.904;2022-12-18T07:10:20;24.58;;;11.27;;
58496;SDS011;44284;51.310;16.904;2022-12-18T07:12:46;30.83;;;13.82;;
58496;SDS011;44284;51.310;16.904;2022-12-18T07:15:12;33.70;;;14.93;;
58496;SDS011;44284;51.310;16.904;2022-12-18T07:17:38;34.65;;;15.35;;
58496;SDS011;44284;51.310;16.904;2022-12-18T07:20:05;29.88;;;11.23;;
58496;SDS011;44284;51.310;16.904;2022-12-18T07:22:31;33.83;;;13.68;;
58496;SDS011;44284;51.310;16.904;2022-12-18T07:24:57;41.67;;;15.02;;
58496;SDS011;44284;51.310;16.904;2022-12-18T07:27:23;27.35;;;10.95;;
58496;SDS011;44284;51.310;16.904;2022-12-18T07:29:49;32.95;;;14.02;;
58496;SDS011;44284;51.310;16.904;2022-12-18T07:32:16;31.73;;;14.10;;
58496;SDS011;44284;51.310;16.904;2022-12-18T07:34:42;38.53;;;13.95;;
58496;SDS011;44284;51.310;16.904;2022-12-18T07:37:08;31.80;;;13.57;;
58496;SDS011;44284;51.310;16.904;2022-12-18T07:39:34;34.45;;;13.70;;
58496;SDS011;44284;51.310;16.904;2022-12-18T07:42:00;25.50;;;11.45;;
58496;SDS011;44284;51.310;16.904;2022-12-18T07:47:11;24.27;;;12.27;;
58496;SDS011;44284;51.310;16.904;2022-12-18T07:49:37;28.42;;;14.95;;
58496;SDS011;44284;51.310;16.904;2022-12-18T07:52:03;41.40;;;16.75;;
58496;SDS011;44284;51.310;16.904;2022-12-18T07:54:29;38.13;;;15.93;;
58496;SDS011;44284;51.310;16.904;2022-12-18T07:56:55;45.08;;;18.35;;
58496;SDS011;44284;51.310;16.904;2022-12-18T07:59:21;35.05;;;16.40;;
58496;SDS011;44284;51.310;16.904;2022-12-18T08:01:47;44.85;;;22.00;;
58496;SDS011;44284;51.310;16.904;2022-12-18T08:04:13;37.08;;;16.55;;
58496;SDS011;44284;51.310;16.904;2022-12-18T08:06:39;40.10;;;17.25;;
58496;SDS011;44284;51.310;16.904;2022-12-18T08:09:06;37.17;;;16.92;;
58496;SDS011;44284;51.310;16.904;2022-12-18T08:11:33;35.05;;;17.73;;
58496;SDS011;44284;51.310;16.904;2022-12-18T08:13:59;48.05;;;18.88;;
58496;SDS011;44284;51.310;16.904;2022-12-18T08:16:25;48.38;;;18.85;;
58496;SDS011;44284;51.310;16.904;2022-12-18T08:18:52;54.47;;;21.25;;
58496;SDS011;44284;51.310;16.904;2022-12-18T08:21:19;59.17;;;22.52;;
58496;SDS011;44284;51.310;16.904;2022-12-18T08:23:46;51.50;;;19.42;;
58496;SDS011;44284;51.310;16.904;2022-12-18T08:26:13;46.78;;;20.35;;
58496;SDS011;44284;51.310;16.904;2022-12-18T08:28:39;48.70;;;21.58;;
58496;SDS011;44284;51.310;16.904;2022-12-18T08:31:06;52.67;;;21.83;;
58496;SDS011;44284;51.310;16.904;2022-12-18T08:33:32;47.35;;;20.23;;
58496;SDS011;44284;51.310;16.904;2022-12-18T08:35:58;44.15;;;20.90;;
58496;SDS011;44284;51.310;16.904;2022-12-18T08:38:25;48.33;;;21.13;;
58496;SDS011;44284;51.310;16.904;2022-12-18T08:41:04;52.95;;;21.77;;
58496;SDS011;44284;51.310;16.904;2022-12-18T08:43:31;54.35;;;23.95;;
58496;SDS011;44284;51.310;16.904;2022-12-18T08:46:16;53.55;;;21.95;;
58496;SDS011;44284;51.310;16.904;2022-12-18T08:48:42;55.05;;;20.83;;
58496;SDS011;44284;51.310;16.904;2022-12-18T08:51:08;56.90;;;21.00;;
58496;SDS011;44284;51.310;16.904;2022-12-18T08:53:35;52.55;;;20.63;;
58496;SDS011;44284;51.310;16.904;2022-12-18T08:56:02;49.15;;;19.80;;
58496;SDS011;44284;51.310;16.904;2022-12-18T08:58:28;43.25;;;19.90;;
58496;SDS011;44284;51.310;16.904;2022-12-18T09:00:59;50.83;;;20.67;;
58496;SDS011;44284;51.310;16.904;2022-12-18T09:03:25;43.20;;;19.73;;
58496;SDS011;44284;51.310;16.904;2022-12-18T09:05:51;54.40;;;22.98;;
58496;SDS011;44284;51.310;16.904;2022-12-18T09:08:17;41.63;;;18.08;;
58496;SDS011;44284;51.310;16.904;2022-12-18T09:10:44;45.22;;;21.13;;
58496;SDS011;44284;51.310;16.904;2022-12-18T09:13:10;56.50;;;25.02;;
58496;SDS011;44284;51.310;16.904;2022-12-18T09:15:44;46.45;;;21.95;;
58496;SDS011;44284;51.310;16.904;2022-12-18T09:18:10;47.72;;;21.20;;
58496;SDS011;44284;51.310;16.904;2022-12-18T09:20:36;47.65;;;19.40;;
58496;SDS011;44284;51.310;16.904;2022-12-18T09:23:02;52.67;;;22.83;;
58496;SDS011;44284;51.310;16.904;2022-12-18T09:25:29;39.53;;;20.23;;
58496;SDS011;44284;51.310;16.904;2022-12-18T09:27:59;74.97;;;35.20;;
58496;SDS011;44284;51.310;16.904;2022-12-18T09:30:25;66.15;;;26.52;;
58496;SDS011;44284;51.310;16.904;2022-12-18T09:32:51;58.60;;;25.55;;
58496;SDS011;44284;51.310;16.904;2022-12-18T09:35:20;70.65;;;30.70;;
58496;SDS011;44284;51.310;16.904;2022-12-18T09:37:46;54.67;;;25.85;;
58496;SDS011;44284;51.310;16.904;2022-12-18T09:40:16;59.75;;;26.23;;
58496;SDS011;44284;51.310;16.904;2022-12-18T09:42:44;55.97;;;24.02;;
58496;SDS011;44284;51.310;16.904;2022-12-18T09:45:14;63.80;;;25.77;;
58496;SDS011;44284;51.310;16.904;2022-12-18T09:47:40;53.25;;;21.55;;
58496;SDS011;44284;51.310;16.904;2022-12-18T09:52:44;57.97;;;22.45;;
58496;SDS011;44284;51.310;16.904;2022-12-18T09:55:17;68.93;;;29.90;;
58496;SDS011;44284;51.310;16.904;2022-12-18T09:57:49;54.92;;;22.67;;
58496;SDS011;44284;51.310;16.904;2022-12-18T10:00:21;50.88;;;22.08;;
58496;SDS011;44284;51.310;16.904;2022-12-18T10:02:47;51.38;;;22.27;;
58496;SDS011;44284;51.310;16.904;2022-12-18T10:05:17;48.75;;;21.52;;
58496;SDS011;44284;51.310;16.904;2022-12-18T10:07:49;48.03;;;18.83;;
58496;SDS011;44284;51.310;16.904;2022-12-18T10:10:23;63.20;;;25.05;;
58496;SDS011;44284;51.310;16.904;2022-12-18T10:15:33;72.28;;;31.70;;
58496;SDS011;44284;51.310;16.904;2022-12-18T10:20:38;120.00;;;63.22;;
58496;SDS011;44284;51.310;16.904;2022-12-18T10:28:20;67.60;;;30.20;;
58496;SDS011;44284;51.310;16.904;2022-12-18T10:30:46;57.20;;;28.83;;
58496;SDS011;44284;51.310;16.904;2022-12-18T10:33:20;155.57;;;53.47;;
58496;SDS011;44284;51.310;16.904;2022-12-18T10:35:47;55.70;;;22.98;;
58496;SDS011;44284;51.310;16.904;2022-12-18T10:41:02;44.25;;;21.90;;
58496;SDS011;44284;51.310;16.904;2022-12-18T10:43:38;44.75;;;18.58;;
58496;SDS011;44284;51.310;16.904;2022-12-18T10:51:05;67.75;;;26.23;;
58496;SDS011;44284;51.310;16.904;2022-12-18T10:53:33;52.10;;;23.98;;
58496;SDS011;44284;51.310;16.904;2022-12-18T10:56:00;56.75;;;25.27;;
58496;SDS011;44284;51.310;16.904;2022-12-18T10:58:30;39.22;;;18.60;;
58496;SDS011;44284;51.310;16.904;2022-12-18T11:03:34;31.75;;;15.27;;
58496;SDS011;44284;51.310;16.904;2022-12-18T11:08:32;46.40;;;20.45;;
58496;SDS011;44284;51.310;16.904;2022-12-18T11:10:58;49.03;;;21.05;;
58496;SDS011;44284;51.310;16.904;2022-12-18T11:13:25;42.55;;;20.67;;
58496;SDS011;44284;51.310;16.904;2022-12-18T11:15:51;40.08;;;19.65;;
58496;SDS011;44284;51.310;16.904;2022-12-18T11:18:28;46.00;;;18.10;;
58496;SDS011;44284;51.310;16.904;2022-12-18T11:20:56;33.30;;;17.42;;
58496;SDS011;44284;51.310;16.904;2022-12-18T11:23:22;51.97;;;22.88;;
58496;SDS011;44284;51.310;16.904;2022-12-18T11:25:55;49.03;;;23.05;;
58496;SDS011;44284;51.310;16.904;2022-12-18T11:31:21;45.22;;;22.33;;
58496;SDS011;44284;51.310;16.904;2022-12-18T11:34:22;36.83;;;17.45;;
58496;SDS011;44284;51.310;16.904;2022-12-18T11:36:44;37.58;;;16.42;;
58496;SDS011;44284;51.310;16.904;2022-12-18T11:45:03;48.78;;;22.60;;
58496;SDS011;44284;51.310;16.904;2022-12-18T11:47:49;53.60;;;24.75;;
58496;SDS011;44284;51.310;16.904;2022-12-18T11:50:19;38.35;;;17.67;;
58496;SDS011;44284;51.310;16.904;2022-12-18T11:52:47;50.20;;;24.25;;
58496;SDS011;44284;51.310;16.904;2022-12-18T11:55:14;58.70;;;26.63;;
58496;SDS011;44284;51.310;16.904;2022-12-18T11:57:50;40.35;;;20.23;;
58496;SDS011;44284;51.310;16.904;2022-12-18T12:00:21;49.40;;;23.33;;
58496;SDS011;44284;51.310;16.904;2022-12-18T12:05:38;40.88;;;19.17;;
58496;SDS011;44284;51.310;16.904;2022-12-18T12:16:02;47.00;;;20.17;;
58496;SDS011;44284;51.310;16.904;2022-12-18T12:23:50;49.30;;;21.10;;
58496;SDS011;44284;51.310;16.904;2022-12-18T12:31:46;56.03;;;24.80;;
58496;SDS011;44284;51.310;16.904;2022-12-18T12:34:22;54.78;;;23.05;;
58496;SDS011;44284;51.310;16.904;2022-12-18T12:39:19;48.63;;;21.70;;
58496;SDS011;44284;51.310;16.904;2022-12-18T12:41:46;34.20;;;18.40;;
58496;SDS011;44284;51.310;16.904;2022-12-18T12:44:35;61.72;;;21.75;;
58496;SDS011;44284;51.310;16.904;2022-12-18T12:47:10;47.83;;;23.08;;
58496;SDS011;44284;51.310;16.904;2022-12-18T12:49:38;59.53;;;20.52;;
58496;SDS011;44284;51.310;16.904;2022-12-18T12:52:06;47.33;;;19.48;;
58496;SDS011;44284;51.310;16.904;2022-12-18T12:54:33;69.75;;;28.63;;
58496;SDS011;44284;51.310;16.904;2022-12-18T12:57:02;61.45;;;27.33;;
58496;SDS011;44284;51.310;16.904;2022-12-18T13:02:29;86.50;;;34.35;;
58496;SDS011;44284;51.310;16.904;2022-12-18T13:07:32;69.50;;;28.08;;
58496;SDS011;44284;51.310;16.904;2022-12-18T13:20:36;34.90;;;17.83;;
58496;SDS011;44284;51.310;16.904;2022-12-18T13:31:02;55.97;;;18.40;;
58496;SDS011;44284;51.310;16.904;2022-12-18T13:36:29;40.10;;;18.42;;
58496;SDS011;44284;51.310;16.904;2022-12-18T13:38:46;47.10;;;20.40;;
58496;SDS011;44284;51.310;16.904;2022-12-18T13:43:42;58.70;;;27.15;;
58496;SDS011;44284;51.310;16.904;2022-12-18T13:46:25;51.85;;;23.38;;
58496;SDS011;44284;51.310;16.904;2022-12-18T13:49:20;49.20;;;22.33;;
58496;SDS011;44284;51.310;16.904;2022-12-18T13:51:48;44.22;;;21.98;;
58496;SDS011;44284;51.310;16.904;2022-12-18T13:56:49;50.63;;;21.00;;
58496;SDS011;44284;51.310;16.904;2022-12-18T13:59:23;49.10;;;21.50;;
58496;SDS011;44284;51.310;16.904;2022-12-18T14:01:53;48.80;;;20.87;;
58496;SDS011;44284;51.310;16.904;2022-12-18T14:06:46;61.42;;;22.50;;
58496;SDS011;44284;51.310;16.904;2022-12-18T14:09:14;55.55;;;23.58;;
58496;SDS011;44284;51.310;16.904;2022-12-18T14:11:45;45.72;;;18.45;;
58496;SDS011;44284;51.310;16.904;2022-12-18T14:14:13;61.80;;;25.83;;
58496;SDS011;44284;51.310;16.904;2022-12-18T14:16:40;57.00;;;24.42;;
58496;SDS011;44284;51.310;16.904;2022-12-18T14:19:08;57.10;;;22.30;;
58496;SDS011;44284;51.310;16.904;2022-12-18T14:21:39;59.03;;;23.10;;
58496;SDS011;44284;51.310;16.904;2022-12-18T14:24:26;39.65;;;17.13;;
58496;SDS011;44284;51.310;16.904;2022-12-18T14:26:52;44.25;;;20.40;;
58496;SDS011;44284;51.310;16.904;2022-12-18T14:32:10;40.80;;;19.42;;
58496;SDS011;44284;51.310;16.904;2022-12-18T14:34:37;56.70;;;23.30;;
58496;SDS011;44284;51.310;16.904;2022-12-18T14:37:03;45.30;;;21.45;;
58496;SDS011;44284;51.310;16.904;2022-12-18T14:39:29;43.90;;;19.83;;
58496;SDS011;44284;51.310;16.904;2022-12-18T14:41:56;54.90;;;22.50;;
58496;SDS011;44284;51.310;16.904;2022-12-18T14:44:22;46.20;;;20.92;;
58496;SDS011;44284;51.310;16.904;2022-12-18T14:46:49;48.95;;;22.05;;
58496;SDS011;44284;51.310;16.904;2022-12-18T14:51:42;59.80;;;24.27;;
58496;SDS011;44284;51.310;16.904;2022-12-18T14:54:14;42.53;;;16.55;;
58496;SDS011;44284;51.310;16.904;2022-12-18T14:57:01;78.65;;;30.02;;
58496;SDS011;44284;51.310;16.904;2022-12-18T14:59:28;55.30;;;20.17;;
58496;SDS011;44284;51.310;16.904;2022-12-18T15:01:59;41.92;;;18.45;;
58496;SDS011;44284;51.310;16.904;2022-12-18T15:04:27;55.75;;;22.75;;
58496;SDS011;44284;51.310;16.904;2022-12-18T15:09:35;48.97;;;21.27;;
58496;SDS011;44284;51.310;16.904;2022-12-18T15:12:02;58.33;;;26.10;;
58496;SDS011;44284;51.310;16.904;2022-12-18T15:14:38;53.42;;;21.92;;
58496;SDS011;44284;51.310;16.904;2022-12-18T15:17:26;67.43;;;27.75;;
58496;SDS011;44284;51.310;16.904;2022-12-18T15:19:53;64.00;;;26.88;;
58496;SDS011;44284;51.310;16.904;2022-12-18T15:22:25;53.47;;;22.40;;
58496;SDS011;44284;51.310;16.904;2022-12-18T15:24:52;77.43;;;28.83;;
58496;SDS011;44284;51.310;16.904;2022-12-18T15:27:29;66.43;;;25.08;;
58496;SDS011;44284;51.310;16.904;2022-12-18T15:29:59;45.13;;;20.15;;
58496;SDS011;44284;51.310;16.904;2022-12-18T15:32:25;83.63;;;29.77;;
58496;SDS011;44284;51.310;16.904;2022-12-18T15:35:01;82.97;;;27.63;;
58496;SDS011;44284;51.310;16.904;2022-12-18T15:37:27;69.18;;;27.52;;
58496;SDS011;44284;51.310;16.904;2022-12-18T15:39:53;63.67;;;27.15;;
58496;SDS011;44284;51.310;16.904;2022-12-18T15:42:19;41.50;;;20.88;;
58496;SDS011;44284;51.310;16.904;2022-12-18T15:45:04;59.90;;;23.77;;
58496;SDS011;44284;51.310;16.904;2022-12-18T15:47:30;83.22;;;28.23;;
58496;SDS011;44284;51.310;16.904;2022-12-18T15:49:57;48.35;;;23.00;;
58496;SDS011;44284;51.310;16.904;2022-12-18T15:52:23;63.92;;;23.73;;
58496;SDS011;44284;51.310;16.904;2022-12-18T15:54:51;60.17;;;25.17;;
58496;SDS011;44284;51.310;16.904;2022-12-18T15:57:36;45.10;;;17.55;;
58496;SDS011;44284;51.310;16.904;2022-12-18T16:00:02;66.43;;;24.08;;
58496;SDS011;44284;51.310;16.904;2022-12-18T16:02:28;71.35;;;23.33;;
58496;SDS011;44284;51.310;16.904;2022-12-18T16:04:54;60.13;;;26.25;;
58496;SDS011;44284;51.310;16.904;2022-12-18T16:07:20;55.20;;;20.92;;
58496;SDS011;44284;51.310;16.904;2022-12-18T16:09:46;60.72;;;24.90;;
58496;SDS011;44284;51.310;16.904;2022-12-18T16:12:19;61.38;;;27.63;;
58496;SDS011;44284;51.310;16.904;2022-12-18T16:14:47;43.10;;;16.60;;